Time;durP1;ratioP1;P1;durP2;ratioP2;P2;SDS_P1;SDS_P2;PMS_P1;PMS_P2;Temp;Humidity;BMP_temperature;BMP_pressure;BME280_temperature;BME280_humidity;BME280_pressure;Samples;Min_cycle;Max_cycle;Signal;HPM_P1;HPM_P2
2022/01/01 00:01:41;;;;;;;52.42;23.98;;;10.90;99.90;;;;;;5128284;28;20051;-79
2022/01/01 00:04:08;;;;;;;47.03;23.02;;;10.90;99.90;;;;;;5102945;28;20052;-80
2022/01/01 00:06:34;;;;;;;44.40;21.40;;;10.90;99.90;;;;;;5126784;27;20503;-78
2022/01/01 00:09:01;;;;;;;45.10;22.88;;;11.00;99.90;;;;;;5102790;28;20056;-79
2022/01/01 00:11:27;;;;;;;43.03;22.45;;;11.00;99.90;;;;;;5128895;27;20058;-79
2022/01/01 00:13:54;;;;;;;46.88;23.13;;;10.90;99.90;;;;;;5130290;27;20047;-79
2022/01/01 00:16:20;;;;;;;46.42;23.77;;;11.00;99.90;;;;;;5109869;27;20410;-79
2022/01/01 00:18:47;;;;;;;53.78;24.42;;;11.00;99.90;;;;;;5109711;27;20055;-79
2022/01/01 00:21:14;;;;;;;46.60;24.38;;;11.00;99.90;;;;;;5125714;27;20047;-79
2022/01/01 00:23:40;;;;;;;51.17;25.58;;;11.00;99.90;;;;;;5104123;27;20069;-79
2022/01/01 00:26:07;;;;;;;56.83;27.38;;;11.00;99.90;;;;;;5130713;27;20137;-79
2022/01/01 00:28:33;;;;;;;45.65;23.85;;;11.00;99.90;;;;;;5130640;27;20618;-79
2022/01/01 00:31:00;;;;;;;60.72;25.83;;;10.90;99.90;;;;;;5116767;27;20043;-79
2022/01/01 00:33:29;;;;;;;48.63;23.77;;;10.90;99.90;;;;;;5121706;27;20067;-79
2022/01/01 00:35:55;;;;;;;42.22;21.38;;;10.90;99.90;;;;;;5118619;27;20058;-78
2022/01/01 00:38:22;;;;;;;41.97;22.65;;;10.90;99.90;;;;;;5103547;27;20051;-79
2022/01/01 00:40:48;;;;;;;40.55;19.33;;;10.90;99.90;;;;;;5134143;27;20054;-79
2022/01/01 00:43:15;;;;;;;41.67;20.77;;;10.90;99.90;;;;;;5101872;27;20043;-79
2022/01/01 00:45:41;;;;;;;41.85;18.75;;;10.90;99.90;;;;;;5105920;28;20052;-80
2022/01/01 00:48:08;;;;;;;45.88;21.52;;;10.90;99.90;;;;;;5116287;27;20050;-79
2022/01/01 00:50:34;;;;;;;45.10;23.13;;;10.90;99.90;;;;;;5132309;27;20043;-79
2022/01/01 00:53:01;;;;;;;48.90;23.70;;;10.80;99.90;;;;;;5111854;27;20059;-79
2022/01/01 00:55:28;;;;;;;43.08;23.30;;;10.90;99.90;;;;;;5113063;27;20051;-78
2022/01/01 00:57:54;;;;;;;55.22;25.20;;;10.90;99.90;;;;;;5110893;27;20179;-79
2022/01/01 01:00:21;;;;;;;45.20;26.25;;;10.90;99.90;;;;;;5108061;27;20043;-79
2022/01/01 01:02:47;;;;;;;60.13;26.55;;;10.90;99.90;;;;;;5119632;27;20043;-79
2022/01/01 01:05:14;;;;;;;55.05;25.27;;;10.80;99.90;;;;;;5126668;27;20499;-79
2022/01/01 01:07:40;;;;;;;54.88;24.58;;;10.90;99.90;;;;;;5108894;27;20047;-80
2022/01/01 01:10:07;;;;;;;52.47;23.75;;;10.90;99.90;;;;;;5130764;27;20058;-78
2022/01/01 01:12:39;;;;;;;44.88;22.60;;;10.90;99.90;;;;;;5123778;27;20134;-80
2022/01/01 01:15:06;;;;;;;41.72;21.25;;;10.90;99.90;;;;;;5127368;27;20051;-80
2022/01/01 01:17:32;;;;;;;46.33;23.45;;;11.00;99.90;;;;;;5114860;27;20193;-79
2022/01/01 01:19:59;;;;;;;50.50;24.52;;;11.00;99.90;;;;;;5131627;27;20051;-79
2022/01/01 01:22:28;;;;;;;45.08;21.38;;;10.90;99.90;;;;;;5129731;27;20505;-80
2022/01/01 01:24:54;;;;;;;39.65;20.55;;;10.90;99.90;;;;;;5105491;27;20047;-79
2022/01/01 01:27:23;;;;;;;57.28;23.02;;;10.90;99.90;;;;;;5107933;27;20122;-79
2022/01/01 01:29:49;;;;;;;46.15;22.33;;;10.90;99.90;;;;;;5110275;28;20467;-79
2022/01/01 01:32:16;;;;;;;51.60;22.67;;;10.90;99.90;;;;;;5120854;27;20058;-79
2022/01/01 01:34:42;;;;;;;46.47;23.55;;;10.90;99.90;;;;;;5100665;27;20058;-80
2022/01/01 01:37:09;;;;;;;57.38;25.38;;;10.90;99.90;;;;;;5124587;27;20122;-79
2022/01/01 01:39:35;;;;;;;52.85;25.50;;;10.90;99.90;;;;;;5131505;27;20054;-79
2022/01/01 01:42:02;;;;;;;47.25;21.65;;;10.80;99.90;;;;;;5107146;27;20051;-79
2022/01/01 01:44:29;;;;;;;53.95;23.67;;;10.80;99.90;;;;;;5113353;27;20478;-79
2022/01/01 01:46:56;;;;;;;59.60;26.27;;;10.70;99.90;;;;;;5112468;27;20055;-80
2022/01/01 01:49:23;;;;;;;53.40;24.27;;;10.70;99.90;;;;;;5115639;27;20468;-79
2022/01/01 01:51:49;;;;;;;61.83;24.45;;;10.70;99.90;;;;;;5110558;27;20051;-79
2022/01/01 01:54:16;;;;;;;51.35;25.85;;;10.70;99.90;;;;;;5122182;27;20061;-79
2022/01/01 01:56:43;;;;;;;69.05;27.60;;;10.60;99.90;;;;;;5106924;27;20047;-79
2022/01/01 01:59:10;;;;;;;52.90;22.50;;;10.60;99.90;;;;;;5129531;27;20047;-79
2022/01/01 02:01:36;;;;;;;50.95;22.92;;;10.60;99.90;;;;;;5125436;27;20051;-79
2022/01/01 02:04:03;;;;;;;44.55;20.30;;;10.60;99.90;;;;;;5107746;27;20047;-79
2022/01/01 02:06:29;;;;;;;52.47;22.83;;;10.70;99.90;;;;;;5127727;27;20051;-79
2022/01/01 02:08:56;;;;;;;59.95;23.40;;;10.70;99.90;;;;;;5121356;27;20051;-79
2022/01/01 02:11:23;;;;;;;55.88;24.38;;;10.60;99.90;;;;;;5105742;28;20047;-79
2022/01/01 02:14:03;;;;;;;48.90;23.95;;;10.60;99.90;;;;;;5105796;27;20120;-79
2022/01/01 02:16:49;;;;;;;53.60;23.80;;;10.60;99.90;;;;;;5098281;27;20047;-79
2022/01/01 02:19:15;;;;;;;48.80;23.15;;;10.60;99.90;;;;;;5108734;27;20078;-79
2022/01/01 02:21:42;;;;;;;48.67;23.75;;;10.60;99.90;;;;;;5117519;27;20414;-80
2022/01/01 02:24:09;;;;;;;58.17;22.30;;;10.60;99.90;;;;;;5103275;27;20127;-80
2022/01/01 02:26:35;;;;;;;54.60;22.50;;;10.70;99.90;;;;;;5121387;27;20446;-80
2022/01/01 02:29:03;;;;;;;56.60;23.25;;;10.70;99.90;;;;;;5104759;28;20054;-80
2022/01/01 02:31:29;;;;;;;62.60;25.05;;;10.70;99.90;;;;;;5106764;27;20414;-80
2022/01/01 02:33:56;;;;;;;56.83;27.23;;;10.70;99.90;;;;;;5107052;27;20078;-79
2022/01/01 02:36:23;;;;;;;53.78;27.65;;;10.70;99.90;;;;;;5123063;27;20090;-79
2022/01/01 02:38:49;;;;;;;54.22;26.63;;;10.60;99.90;;;;;;5117547;27;20048;-80
2022/01/01 02:41:16;;;;;;;71.38;31.27;;;10.70;99.90;;;;;;5126995;27;20052;-79
2022/01/01 02:43:42;;;;;;;70.45;32.08;;;10.70;99.90;;;;;;5103911;27;20058;-79
2022/01/01 02:46:09;;;;;;;68.55;32.00;;;10.70;99.90;;;;;;5110412;27;20050;-80
2022/01/01 02:48:36;;;;;;;66.30;33.42;;;10.70;99.90;;;;;;5123271;27;20054;-79
2022/01/01 02:51:03;;;;;;;66.40;31.75;;;10.60;99.90;;;;;;5124359;27;20056;-79
2022/01/01 02:53:30;;;;;;;90.32;37.58;;;10.70;99.90;;;;;;5118533;27;20054;-79
2022/01/01 02:55:56;;;;;;;80.00;37.25;;;10.70;99.90;;;;;;5107903;27;20055;-80
2022/01/01 02:58:23;;;;;;;78.30;35.72;;;10.80;99.90;;;;;;5104743;27;20055;-79
2022/01/01 03:00:49;;;;;;;87.63;38.42;;;10.70;99.90;;;;;;5101777;27;20051;-80
2022/01/01 03:03:16;;;;;;;74.57;36.88;;;10.80;99.90;;;;;;5107838;27;20047;-78
2022/01/01 03:05:43;;;;;;;85.20;40.20;;;10.80;99.90;;;;;;5113352;27;20047;-78
2022/01/01 03:08:09;;;;;;;77.38;38.72;;;10.90;99.90;;;;;;5101459;28;20059;-79
2022/01/01 03:10:36;;;;;;;77.38;34.45;;;10.80;99.90;;;;;;5116632;27;20048;-79
2022/01/01 03:13:02;;;;;;;86.45;37.17;;;10.80;99.90;;;;;;5113627;27;20050;-78
2022/01/01 03:15:29;;;;;;;74.20;34.95;;;10.80;99.90;;;;;;5121245;27;20055;-78
2022/01/01 03:17:56;;;;;;;80.70;37.38;;;10.90;99.90;;;;;;5097933;28;20058;-80
2022/01/01 03:20:23;;;;;;;91.95;39.55;;;10.90;99.90;;;;;;5101810;28;20112;-79
2022/01/01 03:22:49;;;;;;;80.07;41.25;;;10.80;99.90;;;;;;5106353;28;20058;-80
2022/01/01 03:25:16;;;;;;;79.47;38.00;;;10.90;99.90;;;;;;5108404;27;20062;-79
2022/01/01 03:27:42;;;;;;;85.18;41.38;;;10.90;99.90;;;;;;5103280;28;20048;-78
2022/01/01 03:30:09;;;;;;;77.22;36.03;;;10.90;99.90;;;;;;5100710;27;20047;-79
2022/01/01 03:32:36;;;;;;;76.18;38.90;;;10.90;99.90;;;;;;5098156;28;20078;-79
2022/01/01 03:35:02;;;;;;;84.00;37.60;;;10.90;99.90;;;;;;5095486;27;20406;-79
2022/01/01 03:37:29;;;;;;;83.50;39.63;;;10.90;99.90;;;;;;5127826;27;20051;-79
2022/01/01 03:39:56;;;;;;;79.40;37.05;;;10.90;99.90;;;;;;5103602;28;20108;-80
2022/01/01 03:42:22;;;;;;;83.47;36.97;;;10.90;99.90;;;;;;5113385;28;20047;-79
2022/01/01 03:44:49;;;;;;;76.68;38.08;;;10.80;99.90;;;;;;5108080;28;20054;-79
2022/01/01 03:47:15;;;;;;;83.30;35.92;;;10.80;99.90;;;;;;5101290;28;20120;-79
2022/01/01 03:49:42;;;;;;;86.35;38.33;;;10.90;99.90;;;;;;5113264;28;20501;-79
2022/01/01 03:52:08;;;;;;;83.18;40.08;;;10.90;99.90;;;;;;5107046;28;20413;-79
2022/01/01 03:54:35;;;;;;;82.18;37.85;;;10.90;99.90;;;;;;5103672;28;20122;-79
2022/01/01 03:57:02;;;;;;;83.90;37.95;;;10.90;99.90;;;;;;5097162;28;20050;-78
2022/01/01 03:59:28;;;;;;;71.13;38.15;;;10.90;99.90;;;;;;5125474;28;20067;-78
2022/01/01 04:01:55;;;;;;;82.15;39.30;;;10.90;99.90;;;;;;5107990;28;20055;-79
2022/01/01 04:04:23;;;;;;;89.47;41.17;;;10.90;99.90;;;;;;5105418;28;20070;-78
2022/01/01 04:06:50;;;;;;;85.13;38.85;;;10.90;99.90;;;;;;5097799;28;20048;-79
2022/01/01 04:09:16;;;;;;;82.63;40.80;;;10.90;99.90;;;;;;5107098;28;20047;-78
2022/01/01 04:11:43;;;;;;;77.43;37.78;;;10.90;99.90;;;;;;5100518;28;20147;-78
2022/01/01 04:14:12;;;;;;;89.30;38.10;;;10.90;99.90;;;;;;5107829;28;20055;-79
2022/01/01 04:16:38;;;;;;;92.05;40.92;;;10.90;99.90;;;;;;5102866;28;20062;-79
2022/01/01 04:19:05;;;;;;;82.10;37.90;;;10.90;99.90;;;;;;5098160;28;20067;-79
2022/01/01 04:21:32;;;;;;;77.22;38.47;;;10.90;99.90;;;;;;5094964;28;20135;-80
2022/01/01 04:23:58;;;;;;;80.53;38.55;;;10.90;99.90;;;;;;5100775;28;20043;-79
2022/01/01 04:26:25;;;;;;;92.93;40.08;;;10.80;99.90;;;;;;5110230;28;20043;-80
2022/01/01 04:28:52;;;;;;;79.00;40.03;;;10.80;99.90;;;;;;5107664;28;20470;-79
2022/01/01 04:31:18;;;;;;;71.70;38.38;;;10.80;99.90;;;;;;5102715;28;20486;-80
2022/01/01 04:33:45;;;;;;;89.88;42.85;;;10.80;99.90;;;;;;5103027;28;20050;-79
2022/01/01 04:36:11;;;;;;;77.72;43.28;;;10.80;99.90;;;;;;5114281;28;20062;-79
2022/01/01 04:38:40;;;;;;;91.60;42.28;;;10.80;99.90;;;;;;5117363;28;20054;-80
2022/01/01 04:41:06;;;;;;;85.10;43.38;;;10.80;99.90;;;;;;5097327;28;20515;-78
2022/01/01 04:43:33;;;;;;;88.95;44.90;;;10.80;99.90;;;;;;5099709;28;20471;-79
2022/01/01 04:45:59;;;;;;;80.53;42.92;;;10.70;99.90;;;;;;5097446;28;20051;-80
2022/01/01 04:48:26;;;;;;;79.60;45.00;;;10.70;99.90;;;;;;5110007;28;20054;-80
2022/01/01 04:50:53;;;;;;;89.88;49.45;;;10.80;99.90;;;;;;5113771;28;20047;-79
2022/01/01 04:53:19;;;;;;;91.47;46.88;;;10.70;99.90;;;;;;5113032;27;20047;-78
2022/01/01 04:55:46;;;;;;;82.68;43.85;;;10.80;99.90;;;;;;5111005;27;20047;-79
2022/01/01 04:58:12;;;;;;;94.40;44.70;;;10.70;99.90;;;;;;5111900;27;20050;-79
2022/01/01 05:00:39;;;;;;;83.00;46.35;;;10.80;99.90;;;;;;5124223;27;20043;-78
2022/01/01 05:03:05;;;;;;;94.50;46.67;;;10.80;99.90;;;;;;5107524;27;20063;-79
2022/01/01 05:05:32;;;;;;;86.78;41.88;;;10.70;99.90;;;;;;5100336;28;20054;-78
2022/01/01 05:07:58;;;;;;;89.38;45.45;;;10.70;99.90;;;;;;5104207;28;20044;-80
2022/01/01 05:10:25;;;;;;;90.57;47.47;;;10.70;99.90;;;;;;5108549;27;20058;-80
2022/01/01 05:12:51;;;;;;;98.03;46.97;;;10.70;99.90;;;;;;5102250;28;20603;-79
2022/01/01 05:15:18;;;;;;;101.35;45.22;;;10.70;99.90;;;;;;5097455;27;20557;-80
2022/01/01 05:17:45;;;;;;;86.80;45.63;;;10.70;99.90;;;;;;5108663;28;20055;-78
2022/01/01 05:20:11;;;;;;;92.28;48.22;;;10.70;99.90;;;;;;5115979;27;20050;-79
2022/01/01 05:22:38;;;;;;;88.32;47.13;;;10.70;99.90;;;;;;5128614;27;20053;-79
2022/01/01 05:25:05;;;;;;;87.07;47.75;;;10.70;99.90;;;;;;5115453;27;20478;-78
2022/01/01 05:27:34;;;;;;;99.32;54.85;;;10.70;99.90;;;;;;5115841;27;20040;-79
2022/01/01 05:30:02;;;;;;;99.70;50.90;;;10.70;99.90;;;;;;5107664;27;20055;-80
2022/01/01 05:32:28;;;;;;;94.25;52.92;;;10.70;99.90;;;;;;5118204;27;20043;-80
2022/01/01 05:34:55;;;;;;;102.07;53.13;;;10.60;99.90;;;;;;5114589;27;20062;-79
2022/01/01 05:37:21;;;;;;;98.45;55.42;;;10.70;99.90;;;;;;5108941;28;20043;-79
2022/01/01 05:39:48;;;;;;;98.32;53.25;;;10.70;99.90;;;;;;5106571;27;20047;-79
2022/01/01 05:42:14;;;;;;;102.38;53.67;;;10.60;99.90;;;;;;5125595;27;20056;-80
2022/01/01 05:44:41;;;;;;;114.88;58.03;;;10.70;99.90;;;;;;5123833;27;20054;-80
2022/01/01 05:47:07;;;;;;;102.05;56.55;;;10.70;99.90;;;;;;5116558;27;20069;-79
2022/01/01 05:49:34;;;;;;;109.60;58.75;;;10.70;99.90;;;;;;5131770;27;20050;-80
2022/01/01 05:52:01;;;;;;;99.22;52.63;;;10.70;99.90;;;;;;5107826;28;20486;-79
2022/01/01 05:54:27;;;;;;;107.82;56.95;;;10.70;99.90;;;;;;5096424;28;20497;-80
2022/01/01 05:56:54;;;;;;;107.35;58.13;;;10.70;99.90;;;;;;5109240;27;20481;-80
2022/01/01 05:59:20;;;;;;;104.63;58.45;;;10.70;99.90;;;;;;5104853;28;20052;-79
2022/01/01 06:01:47;;;;;;;106.13;59.13;;;10.70;99.90;;;;;;5108388;27;20054;-79
2022/01/01 06:04:13;;;;;;;102.18;58.15;;;10.70;99.90;;;;;;5108365;27;20054;-79
2022/01/01 06:06:40;;;;;;;101.30;57.83;;;10.70;99.90;;;;;;5103898;27;20051;-79
2022/01/01 06:09:06;;;;;;;102.85;54.58;;;10.70;99.90;;;;;;5095982;28;20054;-80
2022/01/01 06:11:33;;;;;;;92.00;54.65;;;10.70;99.90;;;;;;5123172;27;20039;-79
2022/01/01 06:13:59;;;;;;;101.30;57.40;;;10.70;99.90;;;;;;5111429;27;20047;-79
2022/01/01 06:16:26;;;;;;;105.85;58.60;;;10.70;99.90;;;;;;5126590;27;20050;-79
2022/01/01 06:18:52;;;;;;;97.32;54.65;;;10.80;99.90;;;;;;5100295;28;20046;-79
2022/01/01 06:21:19;;;;;;;101.05;54.83;;;10.80;99.90;;;;;;5104708;27;20058;-79
2022/01/01 06:23:46;;;;;;;102.32;57.75;;;10.80;99.90;;;;;;5095798;28;20055;-79
2022/01/01 06:26:12;;;;;;;104.80;54.50;;;10.80;99.90;;;;;;5107285;27;20054;-79
2022/01/01 06:28:39;;;;;;;101.43;55.13;;;10.80;99.90;;;;;;5119277;27;20051;-79
2022/01/01 06:31:05;;;;;;;116.28;55.25;;;10.80;99.90;;;;;;5104603;27;20100;-80
2022/01/01 06:33:32;;;;;;;86.38;47.13;;;10.70;99.90;;;;;;5102491;28;20051;-79
2022/01/01 06:35:58;;;;;;;100.28;51.53;;;10.80;99.90;;;;;;5114204;27;20394;-79
2022/01/01 06:38:25;;;;;;;92.70;47.13;;;10.80;99.90;;;;;;5098457;28;20063;-79
2022/01/01 06:40:51;;;;;;;91.05;47.30;;;10.80;99.90;;;;;;5117247;27;20061;-78
2022/01/01 06:43:18;;;;;;;87.28;47.17;;;10.80;99.90;;;;;;5105860;27;20406;-79
2022/01/01 06:45:45;;;;;;;94.47;47.28;;;10.80;99.90;;;;;;5116103;27;20051;-79
2022/01/01 06:48:11;;;;;;;90.70;46.42;;;10.80;99.90;;;;;;5123164;27;20058;-79
2022/01/01 06:50:38;;;;;;;102.72;49.20;;;10.90;99.90;;;;;;5103211;28;20059;-79
2022/01/01 06:53:04;;;;;;;101.07;48.97;;;10.80;99.90;;;;;;5108255;27;20047;-79
2022/01/01 06:55:31;;;;;;;99.72;44.58;;;10.80;99.90;;;;;;5104289;28;20066;-80
2022/01/01 06:57:57;;;;;;;83.38;43.00;;;10.80;99.90;;;;;;5095997;27;20051;-80
2022/01/01 07:00:24;;;;;;;90.82;46.65;;;10.80;99.90;;;;;;5103077;27;20047;-79
2022/01/01 07:02:51;;;;;;;81.22;44.53;;;10.70;99.90;;;;;;5126530;27;20052;-79
2022/01/01 07:05:17;;;;;;;80.85;41.08;;;10.80;99.90;;;;;;5121593;27;20054;-80
2022/01/01 07:07:44;;;;;;;93.60;42.75;;;10.80;99.90;;;;;;5125610;27;20120;-80
2022/01/01 07:10:10;;;;;;;80.63;40.08;;;10.80;99.90;;;;;;5121543;27;20478;-80
2022/01/01 07:12:37;;;;;;;105.13;42.28;;;10.70;99.90;;;;;;5097593;27;20383;-80
2022/01/01 07:15:03;;;;;;;69.82;36.20;;;10.70;99.90;;;;;;5113422;27;20040;-80
2022/01/01 07:17:30;;;;;;;86.43;36.47;;;10.70;99.90;;;;;;5097711;27;20050;-80
2022/01/01 07:19:56;;;;;;;86.63;36.33;;;10.70;99.90;;;;;;5116272;27;20047;-80
2022/01/01 07:22:23;;;;;;;77.70;36.45;;;10.70;99.90;;;;;;5097207;28;20510;-80
2022/01/01 07:24:50;;;;;;;82.80;38.08;;;10.70;99.90;;;;;;5115886;27;20479;-80
2022/01/01 07:27:16;;;;;;;82.93;36.47;;;10.60;99.90;;;;;;5112520;27;20043;-80
2022/01/01 07:29:43;;;;;;;66.55;34.70;;;10.60;99.90;;;;;;5111986;27;20058;-80
2022/01/01 07:32:09;;;;;;;79.78;35.97;;;10.60;99.90;;;;;;5097598;28;20039;-80
2022/01/01 07:34:37;;;;;;;72.57;33.00;;;10.60;99.90;;;;;;5112027;27;20096;-81
2022/01/01 07:37:04;;;;;;;75.45;34.25;;;10.60;99.90;;;;;;5117336;27;20087;-80
2022/01/01 07:39:30;;;;;;;90.75;35.15;;;10.60;99.90;;;;;;5113295;27;20153;-80
2022/01/01 07:41:57;;;;;;;70.47;33.42;;;10.50;99.90;;;;;;5110200;28;20061;-80
2022/01/01 07:44:23;;;;;;;95.53;34.25;;;10.60;99.90;;;;;;5115567;27;20043;-80
2022/01/01 07:46:50;;;;;;;71.93;33.30;;;10.60;99.90;;;;;;5113422;28;20047;-80
2022/01/01 07:49:17;;;;;;;80.68;33.47;;;10.60;99.90;;;;;;5107542;28;20131;-80
2022/01/01 07:51:43;;;;;;;69.32;31.33;;;10.60;99.90;;;;;;5124976;28;20050;-80
2022/01/01 07:54:10;;;;;;;72.43;31.15;;;10.60;99.90;;;;;;5124473;28;20401;-80
2022/01/01 07:56:36;;;;;;;78.60;33.22;;;10.60;99.90;;;;;;5110024;28;20494;-79
2022/01/01 07:59:03;;;;;;;73.95;32.95;;;10.60;99.90;;;;;;5126996;28;20054;-80
2022/01/01 08:01:29;;;;;;;83.30;32.92;;;10.60;99.90;;;;;;5111819;28;20498;-80
2022/01/01 08:04:01;;;;;;;85.00;33.13;;;10.60;99.90;;;;;;5097637;28;20039;-80
2022/01/01 08:06:28;;;;;;;78.03;29.88;;;10.70;99.90;;;;;;5112824;28;20071;-79
2022/01/01 08:08:54;;;;;;;84.03;31.10;;;10.70;99.90;;;;;;5097172;28;20429;-80
2022/01/01 08:11:21;;;;;;;91.30;32.30;;;10.70;99.90;;;;;;5112476;28;20047;-81
2022/01/01 08:13:47;;;;;;;73.63;28.85;;;10.60;99.90;;;;;;5100213;28;20058;-80
2022/01/01 08:16:14;;;;;;;89.10;29.80;;;10.70;99.90;;;;;;5097599;28;20048;-80
2022/01/01 08:18:41;;;;;;;76.20;31.55;;;10.70;99.90;;;;;;5097862;28;20047;-80
2022/01/01 08:21:07;;;;;;;67.80;31.25;;;10.70;99.90;;;;;;5107817;28;20047;-80
2022/01/01 08:23:34;;;;;;;80.65;33.78;;;10.60;99.90;;;;;;5113480;28;20043;-81
2022/01/01 08:26:00;;;;;;;94.50;32.85;;;10.70;99.90;;;;;;5113890;28;20048;-81
2022/01/01 08:28:27;;;;;;;64.25;31.20;;;10.60;99.90;;;;;;5107774;27;20046;-80
2022/01/01 08:30:53;;;;;;;78.10;31.77;;;10.70;99.90;;;;;;5110693;27;20518;-81
2022/01/01 08:33:20;;;;;;;62.70;28.58;;;10.70;99.90;;;;;;5130933;27;20047;-81
2022/01/01 08:35:46;;;;;;;73.13;30.27;;;10.70;99.90;;;;;;5112004;27;20063;-80
2022/01/01 08:38:13;;;;;;;66.13;29.10;;;10.70;99.90;;;;;;5097535;27;20063;-80
2022/01/01 08:40:40;;;;;;;59.65;27.17;;;10.70;99.90;;;;;;5107380;27;20050;-80
2022/01/01 08:43:06;;;;;;;46.85;24.85;;;10.70;99.90;;;;;;5121764;27;20074;-80
2022/01/01 08:45:33;;;;;;;79.53;31.70;;;10.80;99.90;;;;;;5102287;28;20047;-80
2022/01/01 08:47:59;;;;;;;75.15;27.73;;;10.80;99.90;;;;;;5125068;27;20062;-80
2022/01/01 08:50:26;;;;;;;68.72;29.05;;;10.80;99.90;;;;;;5108884;27;20062;-80
2022/01/01 08:52:53;;;;;;;71.40;29.75;;;10.80;99.90;;;;;;5107107;27;20701;-80
2022/01/01 08:55:19;;;;;;;72.43;29.00;;;10.80;99.90;;;;;;5097181;27;20086;-79
2022/01/01 08:57:46;;;;;;;76.57;28.50;;;10.80;99.90;;;;;;5123055;27;20058;-80
2022/01/01 09:00:12;;;;;;;60.92;28.45;;;10.80;99.90;;;;;;5105833;27;20059;-80
2022/01/01 09:02:39;;;;;;;64.50;30.17;;;10.80;99.90;;;;;;5100397;27;20055;-79
2022/01/01 09:05:05;;;;;;;58.70;27.15;;;10.80;99.90;;;;;;5117508;27;20059;-80
2022/01/01 09:07:32;;;;;;;63.47;28.80;;;10.80;99.90;;;;;;5103626;27;20050;-80
2022/01/01 09:09:58;;;;;;;67.40;29.00;;;10.90;99.90;;;;;;5116554;27;20047;-80
2022/01/01 09:12:25;;;;;;;75.55;31.00;;;10.90;99.90;;;;;;5107941;27;20055;-80
2022/01/01 09:14:51;;;;;;;76.95;30.95;;;11.00;99.90;;;;;;5095821;28;20662;-80
2022/01/01 09:17:18;;;;;;;79.05;32.78;;;11.00;99.90;;;;;;5118063;27;20055;-80
2022/01/01 09:19:45;;;;;;;66.22;28.35;;;10.90;99.90;;;;;;5109413;27;20418;-80
2022/01/01 09:22:11;;;;;;;66.72;29.40;;;11.00;99.90;;;;;;5100514;27;20059;-80
2022/01/01 09:24:38;;;;;;;60.38;29.15;;;11.00;99.90;;;;;;5121658;27;20043;-80
2022/01/01 09:27:04;;;;;;;71.50;29.58;;;11.00;99.90;;;;;;5100445;28;20056;-83
2022/01/01 09:29:31;;;;;;;67.68;30.92;;;11.00;99.90;;;;;;5106286;28;20043;-80
2022/01/01 09:31:57;;;;;;;71.85;31.85;;;11.00;99.90;;;;;;5094653;28;20059;-80
2022/01/01 09:34:24;;;;;;;77.53;31.23;;;11.00;99.90;;;;;;5104148;28;20055;-80
2022/01/01 09:36:51;;;;;;;59.70;30.33;;;11.00;99.90;;;;;;5096172;28;20055;-80
2022/01/01 09:39:18;;;;;;;68.68;32.53;;;11.00;99.90;;;;;;5115092;27;20130;-80
2022/01/01 09:41:44;;;;;;;65.93;31.83;;;11.00;99.90;;;;;;5128768;27;20058;-80
2022/01/01 09:44:11;;;;;;;65.60;30.83;;;11.10;99.90;;;;;;5107626;27;20147;-79
2022/01/01 09:46:37;;;;;;;69.88;32.67;;;11.10;99.90;;;;;;5127424;27;20051;-80
2022/01/01 09:49:04;;;;;;;65.25;32.15;;;11.10;99.90;;;;;;5122830;27;20047;-80
2022/01/01 09:51:30;;;;;;;68.65;33.55;;;11.20;99.90;;;;;;5121035;27;20052;-80
2022/01/01 09:53:57;;;;;;;84.57;35.67;;;11.20;99.90;;;;;;5100703;27;20074;-79
2022/01/01 09:56:23;;;;;;;74.63;34.50;;;11.20;99.90;;;;;;5113887;27;20048;-80
2022/01/01 09:58:50;;;;;;;67.35;35.88;;;11.20;99.90;;;;;;5100747;28;20078;-79
2022/01/01 10:01:16;;;;;;;71.07;33.47;;;11.20;99.90;;;;;;5104225;27;20055;-80
2022/01/01 10:03:43;;;;;;;61.78;34.13;;;11.30;99.90;;;;;;5110080;27;20055;-79
2022/01/01 10:06:12;;;;;;;61.28;34.45;;;11.30;99.90;;;;;;5107108;27;20058;-79
2022/01/01 10:08:38;;;;;;;75.68;38.20;;;11.40;99.90;;;;;;5104660;27;20148;-80
2022/01/01 10:11:05;;;;;;;66.03;34.72;;;11.40;99.90;;;;;;5114314;27;20055;-80
2022/01/01 10:13:32;;;;;;;76.60;38.03;;;11.40;99.90;;;;;;5108989;27;20189;-79
2022/01/01 10:15:58;;;;;;;64.43;35.45;;;11.50;99.90;;;;;;5115188;27;20051;-79
2022/01/01 10:18:25;;;;;;;61.40;32.83;;;11.50;99.90;;;;;;5100617;27;20043;-80
2022/01/01 10:20:51;;;;;;;61.53;32.47;;;11.50;99.90;;;;;;5104372;27;20052;-80
2022/01/01 10:23:20;;;;;;;61.95;34.53;;;11.60;99.90;;;;;;5104874;27;20466;-80
2022/01/01 10:28:31;;;;;;;69.47;33.17;;;11.70;99.90;;;;;;5099288;27;20043;-80
2022/01/01 10:30:58;;;;;;;60.78;33.45;;;11.70;99.90;;;;;;5121693;27;20062;-79
2022/01/01 10:33:24;;;;;;;61.10;29.90;;;11.70;99.90;;;;;;5105073;27;20754;-80
2022/01/01 10:35:51;;;;;;;57.50;30.58;;;11.70;99.90;;;;;;5108700;27;20058;-80
2022/01/01 10:38:18;;;;;;;60.40;30.27;;;11.70;99.90;;;;;;5099980;27;20051;-79
2022/01/01 10:40:44;;;;;;;45.85;27.13;;;11.70;99.90;;;;;;5096877;27;20051;-80
2022/01/01 10:43:11;;;;;;;49.80;28.67;;;11.80;99.90;;;;;;5092317;28;20047;-78
2022/01/01 10:45:38;;;;;;;55.92;27.52;;;11.80;99.90;;;;;;5107684;27;20055;-80
2022/01/01 10:48:04;;;;;;;45.38;27.90;;;11.80;99.90;;;;;;5106215;27;20051;-80
2022/01/01 10:50:31;;;;;;;52.40;27.52;;;11.80;99.90;;;;;;5107358;27;20043;-80
2022/01/01 10:52:57;;;;;;;40.55;25.63;;;11.80;99.90;;;;;;5097580;27;20059;-80
2022/01/01 10:55:24;;;;;;;46.00;23.55;;;11.90;99.90;;;;;;5104210;27;20058;-80
2022/01/01 10:57:50;;;;;;;48.30;25.25;;;11.90;99.90;;;;;;5108231;27;20623;-80
2022/01/01 11:00:17;;;;;;;49.97;23.90;;;11.90;99.90;;;;;;5102362;27;20588;-80
2022/01/01 11:02:44;;;;;;;49.67;26.30;;;11.90;99.90;;;;;;5105070;28;20055;-80
2022/01/01 11:05:10;;;;;;;42.30;22.00;;;11.90;99.90;;;;;;5105237;27;20077;-80
2022/01/01 11:07:37;;;;;;;43.20;22.88;;;11.90;99.90;;;;;;5111142;27;20049;-80
2022/01/01 11:10:03;;;;;;;50.08;23.38;;;12.00;99.90;;;;;;5109814;27;20058;-79
2022/01/01 11:12:30;;;;;;;34.47;20.35;;;12.00;99.90;;;;;;5094767;28;20051;-79
2022/01/01 11:14:56;;;;;;;34.30;22.15;;;12.00;99.90;;;;;;5095588;27;20062;-80
2022/01/01 11:17:23;;;;;;;38.13;20.80;;;12.00;99.90;;;;;;5107065;27;20038;-80
2022/01/01 11:19:49;;;;;;;31.35;17.58;;;11.90;99.90;;;;;;5126846;27;20055;-80
2022/01/01 11:22:16;;;;;;;35.35;17.65;;;12.00;99.90;;;;;;5106177;27;20039;-80
2022/01/01 11:24:43;;;;;;;31.92;18.42;;;12.00;99.90;;;;;;5105332;27;20047;-80
2022/01/01 11:27:09;;;;;;;41.03;17.92;;;12.00;99.90;;;;;;5124031;27;20050;-80
2022/01/01 11:29:36;;;;;;;28.80;15.00;;;12.10;99.90;;;;;;5107616;27;20100;-80
2022/01/01 11:32:03;;;;;;;24.05;14.98;;;12.10;99.90;;;;;;5107393;28;20043;-80
2022/01/01 11:34:30;;;;;;;29.63;16.02;;;12.10;99.90;;;;;;5101676;28;20092;-81
2022/01/01 11:36:57;;;;;;;37.35;15.52;;;12.10;99.90;;;;;;5101239;28;20070;-80
2022/01/01 11:39:24;;;;;;;25.23;14.77;;;12.20;99.90;;;;;;5092220;28;20036;-81
2022/01/01 11:41:50;;;;;;;33.08;15.25;;;12.10;99.90;;;;;;5106324;28;20047;-80
2022/01/01 11:44:17;;;;;;;36.22;15.88;;;12.20;99.90;;;;;;5101089;28;20048;-80
2022/01/01 11:46:43;;;;;;;28.15;14.90;;;12.20;99.90;;;;;;5099919;28;20087;-80
2022/01/01 11:49:10;;;;;;;31.20;14.35;;;12.20;99.90;;;;;;5103221;28;20051;-80
2022/01/01 11:51:38;;;;;;;26.52;13.88;;;12.20;99.90;;;;;;5106103;28;20497;-80
2022/01/01 11:54:04;;;;;;;25.80;11.95;;;12.20;99.90;;;;;;5099013;28;20470;-81
2022/01/01 11:56:31;;;;;;;24.80;13.80;;;12.20;99.90;;;;;;5103009;28;20048;-79
2022/01/01 11:58:58;;;;;;;32.15;13.38;;;12.20;99.90;;;;;;5099833;28;20056;-80
2022/01/01 12:01:24;;;;;;;28.45;14.38;;;12.20;99.90;;;;;;5102833;28;20047;-80
2022/01/01 12:03:51;;;;;;;27.88;12.73;;;12.20;99.90;;;;;;5100579;28;20051;-80
2022/01/01 12:06:17;;;;;;;26.70;13.32;;;12.20;99.90;;;;;;5104610;28;20055;-80
2022/01/01 12:08:44;;;;;;;27.55;12.43;;;12.20;99.90;;;;;;5105084;28;20058;-79
2022/01/01 12:11:11;;;;;;;23.55;13.57;;;12.20;99.90;;;;;;5106188;28;20108;-80
2022/01/01 12:13:38;;;;;;;21.95;11.98;;;12.20;99.90;;;;;;5096818;28;20060;-80
2022/01/01 12:16:04;;;;;;;27.45;12.05;;;12.30;99.90;;;;;;5104347;28;20560;-80
2022/01/01 12:18:31;;;;;;;24.23;12.95;;;12.20;99.90;;;;;;5094567;28;20044;-80
2022/01/01 12:21:01;;;;;;;21.23;11.70;;;12.20;99.90;;;;;;5103704;28;20052;-80
2022/01/01 12:23:28;;;;;;;26.35;12.13;;;12.20;99.90;;;;;;5100254;28;20557;-80
2022/01/01 12:25:54;;;;;;;18.88;10.82;;;12.20;99.90;;;;;;5093633;28;20513;-80